createdAt,value
2022-11-17T00:00:39.985Z,21.70
2022-11-17T00:03:08.074Z,21.70
2022-11-17T00:05:37.964Z,21.70
2022-11-17T00:08:06.272Z,21.70
2022-11-17T00:10:34.392Z,21.70
2022-11-17T00:13:19.651Z,21.70
2022-11-17T00:15:47.786Z,21.70
2022-11-17T00:18:33.580Z,21.70
2022-11-17T00:21:21.518Z,21.70
2022-11-17T00:23:50.499Z,21.70
2022-11-17T00:26:20.962Z,21.70
2022-11-17T00:28:49.108Z,21.70
2022-11-17T00:31:34.529Z,21.70
2022-11-17T00:34:08.621Z,21.70
2022-11-17T00:36:40.758Z,21.70
2022-11-17T00:39:10.308Z,21.70
2022-11-17T00:41:38.560Z,21.70
2022-11-17T00:44:07.351Z,21.70
2022-11-17T00:46:37.116Z,21.70
2022-11-17T00:49:05.701Z,21.70
2022-11-17T00:51:34.270Z,21.70
2022-11-17T00:54:05.244Z,21.70
2022-11-17T00:56:33.651Z,21.70
2022-11-17T00:59:01.913Z,21.70
2022-11-17T01:01:30.753Z,21.70
2022-11-17T01:04:04.156Z,21.70
2022-11-17T01:06:34.094Z,21.70
2022-11-17T01:09:04.634Z,21.70
2022-11-17T01:11:33.106Z,21.70
2022-11-17T01:14:02.660Z,21.60
2022-11-17T01:16:32.273Z,21.70
2022-11-17T01:19:02.120Z,21.70
2022-11-17T01:21:31.457Z,21.70
2022-11-17T01:24:01.570Z,21.70
2022-11-17T01:26:33.783Z,21.70
2022-11-17T01:29:02.661Z,21.60
2022-11-17T01:31:32.920Z,21.60
2022-11-17T01:34:01.088Z,21.60
2022-11-17T01:36:31.404Z,21.70
2022-11-17T01:38:59.515Z,21.60
2022-11-17T01:41:29.977Z,21.60
2022-11-17T01:43:59.797Z,21.60
2022-11-17T01:46:32.808Z,21.60
2022-11-17T01:49:06.235Z,21.70
2022-11-17T01:51:39.622Z,21.60
2022-11-17T01:54:09.178Z,21.60
2022-11-17T01:56:44.787Z,21.60
2022-11-17T01:59:22.636Z,21.60
2022-11-17T02:01:56.579Z,21.60
2022-11-17T02:04:27.007Z,21.60
2022-11-17T02:07:00.902Z,21.60
2022-11-17T02:09:29.426Z,21.60
2022-11-17T02:12:00.585Z,21.60
2022-11-17T02:14:29.413Z,21.60
2022-11-17T02:17:04.299Z,21.60
2022-11-17T02:19:40.796Z,21.60
2022-11-17T02:22:34.662Z,21.60
2022-11-17T02:25:40.378Z,21.60
2022-11-17T02:28:18.093Z,21.60
2022-11-17T02:30:55.903Z,21.60
2022-11-17T02:33:32.117Z,21.60
2022-11-17T02:36:05.770Z,21.60
2022-11-17T02:38:42.443Z,21.60
2022-11-17T02:41:16.394Z,21.60
2022-11-17T02:44:04.088Z,21.60
2022-11-17T02:46:38.606Z,21.60
2022-11-17T02:49:10.899Z,21.60
2022-11-17T02:51:40.657Z,21.60
2022-11-17T02:54:09.392Z,21.60
2022-11-17T02:56:42.344Z,21.60
2022-11-17T02:59:15.017Z,21.60
2022-11-17T03:02:11.364Z,21.60
2022-11-17T03:04:51.843Z,21.60
2022-11-17T03:07:35.187Z,21.60
2022-11-17T03:10:14.453Z,21.60
2022-11-17T03:12:48.013Z,21.60
2022-11-17T03:15:29.097Z,21.60
2022-11-17T03:18:07.493Z,21.60
2022-11-17T03:20:43.111Z,21.60
2022-11-17T03:23:15.393Z,21.60
2022-11-17T03:25:46.685Z,21.60
2022-11-17T03:28:18.688Z,21.60
2022-11-17T03:30:50.118Z,21.60
2022-11-17T03:33:22.359Z,21.60
2022-11-17T03:35:56.205Z,21.60
2022-11-17T03:38:28.568Z,21.60
2022-11-17T03:40:59.335Z,21.60
2022-11-17T03:43:29.479Z,21.60
2022-11-17T03:46:04.983Z,21.60
2022-11-17T03:48:37.317Z,21.60
2022-11-17T03:51:09.349Z,21.60
2022-11-17T03:53:38.551Z,21.60
2022-11-17T03:56:15.938Z,21.60
2022-11-17T03:58:54.845Z,21.60
2022-11-17T04:01:26.136Z,21.60
2022-11-17T04:03:54.644Z,21.60
2022-11-17T04:06:22.808Z,21.60
2022-11-17T04:08:50.911Z,21.60
2022-11-17T04:11:36.441Z,21.60
2022-11-17T04:14:22.079Z,21.60
2022-11-17T04:16:51.531Z,21.60
2022-11-17T04:19:19.631Z,21.50
2022-11-17T04:21:47.855Z,21.60
2022-11-17T04:24:15.986Z,21.60
2022-11-17T04:27:01.799Z,21.60
2022-11-17T04:29:29.914Z,21.60
2022-11-17T04:31:59.382Z,21.50
2022-11-17T04:34:27.491Z,21.50
2022-11-17T04:36:55.601Z,21.50
2022-11-17T04:39:23.768Z,21.50
2022-11-17T04:41:53.868Z,21.50
2022-11-17T04:44:24.013Z,21.50
2022-11-17T04:46:52.530Z,21.50
2022-11-17T04:49:23.343Z,21.50
2022-11-17T04:51:52.475Z,21.50
2022-11-17T04:54:23.693Z,21.50
2022-11-17T04:56:52.334Z,21.50
2022-11-17T04:59:20.497Z,21.50
2022-11-17T05:01:48.963Z,21.50
2022-11-17T05:04:40.298Z,21.50
2022-11-17T05:07:10.348Z,21.50
2022-11-17T05:09:39.015Z,21.50
2022-11-17T05:12:24.986Z,21.50
2022-11-17T05:14:53.086Z,21.50
2022-11-17T05:17:20.205Z,21.50
2022-11-17T05:19:49.552Z,21.50
2022-11-17T05:22:40.289Z,21.50
2022-11-17T05:25:09.741Z,21.50
2022-11-17T05:27:38.707Z,21.50
2022-11-17T05:30:09.552Z,21.50
2022-11-17T05:32:37.675Z,21.50
2022-11-17T05:35:06.515Z,21.50
2022-11-17T05:37:36.158Z,21.50
2022-11-17T05:40:04.503Z,21.50
2022-11-17T05:42:32.675Z,21.50
2022-11-17T05:45:00.752Z,21.50
2022-11-17T05:47:28.903Z,21.50
2022-11-17T05:49:56.965Z,21.50
2022-11-17T05:52:25.115Z,21.50
2022-11-17T05:54:54.599Z,21.50
2022-11-17T05:57:30.092Z,21.50
2022-11-17T06:00:04.410Z,21.50
2022-11-17T06:02:45.618Z,21.50
2022-11-17T06:05:19.826Z,21.50
2022-11-17T06:07:49.604Z,21.50
2022-11-17T06:10:19.286Z,21.50
2022-11-17T06:12:47.602Z,21.50
2022-11-17T06:15:15.903Z,21.50
2022-11-17T06:17:48.770Z,21.50
2022-11-17T06:20:20.096Z,21.50
2022-11-17T06:22:49.369Z,21.50
2022-11-17T06:25:20.662Z,21.50
2022-11-17T06:27:50.034Z,21.50
2022-11-17T06:30:18.963Z,21.50
2022-11-17T06:32:49.989Z,21.50
2022-11-17T06:35:18.770Z,21.40
2022-11-17T06:37:46.897Z,21.40
2022-11-17T06:40:15.145Z,21.40
2022-11-17T06:43:02.290Z,21.40
2022-11-17T06:45:30.431Z,21.40
2022-11-17T06:47:58.567Z,21.40
2022-11-17T06:50:26.843Z,21.40
2022-11-17T06:52:58.680Z,21.40
2022-11-17T06:55:27.211Z,21.40
2022-11-17T06:58:02.139Z,21.40
2022-11-17T07:00:31.598Z,21.40
2022-11-17T07:03:03.612Z,21.40
2022-11-17T07:05:32.471Z,21.40
2022-11-17T07:08:01.477Z,21.40
2022-11-17T07:10:30.685Z,21.40
2022-11-17T07:13:00.398Z,21.40
2022-11-17T07:15:28.667Z,21.40
2022-11-17T07:17:56.998Z,21.40
2022-11-17T07:20:25.175Z,21.40
2022-11-17T07:22:53.255Z,21.40
2022-11-17T07:25:22.646Z,21.40
2022-11-17T07:27:57.977Z,21.40
2022-11-17T07:30:27.889Z,21.40
2022-11-17T07:32:56.071Z,21.40
2022-11-17T07:35:24.221Z,21.40
2022-11-17T07:37:53.277Z,21.40
2022-11-17T07:40:21.417Z,21.40
2022-11-17T07:42:50.244Z,21.40
2022-11-17T07:45:18.682Z,21.40
2022-11-17T07:47:53.729Z,21.40
2022-11-17T07:50:21.910Z,21.40
2022-11-17T07:52:50.307Z,21.40
2022-11-17T07:55:18.524Z,21.40
2022-11-17T07:57:46.759Z,21.40
2022-11-17T08:00:16.150Z,21.40
2022-11-17T08:02:44.299Z,21.40
2022-11-17T08:05:16.422Z,21.40
2022-11-17T08:07:44.623Z,21.40
2022-11-17T08:10:12.900Z,21.40
2022-11-17T08:12:41.116Z,21.40
2022-11-17T08:15:10.374Z,21.40
2022-11-17T08:17:38.540Z,21.50
2022-11-17T08:20:07.431Z,21.50
2022-11-17T08:22:36.929Z,21.50
2022-11-17T08:25:05.989Z,21.50
2022-11-17T08:27:35.078Z,21.60
2022-11-17T08:30:03.258Z,21.60
2022-11-17T08:32:31.441Z,21.60
2022-11-17T08:34:59.557Z,21.60
2022-11-17T08:37:27.821Z,21.60
2022-11-17T08:39:57.720Z,21.70
2022-11-17T08:42:25.918Z,21.70
2022-11-17T08:44:54.074Z,21.70
2022-11-17T08:47:22.285Z,21.70
2022-11-17T08:49:50.482Z,21.70
2022-11-17T08:52:19.372Z,21.80
2022-11-17T08:54:47.514Z,21.80
2022-11-17T08:57:17.108Z,21.80
2022-11-17T08:59:45.312Z,21.80
2022-11-17T09:02:13.736Z,21.80
2022-11-17T09:04:42.016Z,21.80
2022-11-17T09:07:10.441Z,21.80
2022-11-17T09:09:38.686Z,21.80
2022-11-17T09:12:07.190Z,21.80
2022-11-17T09:14:36.936Z,21.90
2022-11-17T09:17:05.466Z,21.90
2022-11-17T09:19:33.620Z,21.90
2022-11-17T09:22:01.832Z,21.90
2022-11-17T09:24:30.035Z,21.90
2022-11-17T09:26:58.399Z,21.90
2022-11-17T09:29:27.393Z,21.90
2022-11-17T09:31:56.897Z,21.90
2022-11-17T09:34:25.639Z,21.90
2022-11-17T09:36:53.821Z,21.90
2022-11-17T09:39:22.497Z,21.90
2022-11-17T09:41:52.571Z,21.90
2022-11-17T09:44:30.145Z,21.90
2022-11-17T09:47:06.413Z,21.90
2022-11-17T09:49:42.534Z,21.90
2022-11-17T09:52:18.751Z,21.90
2022-11-17T09:54:53.060Z,21.90
2022-11-17T09:57:27.086Z,21.90
2022-11-17T10:00:05.844Z,21.90
2022-11-17T10:02:35.635Z,21.90
2022-11-17T10:05:03.914Z,21.90
2022-11-17T10:07:34.074Z,21.90
2022-11-17T10:10:04.489Z,21.90
2022-11-17T10:12:37.308Z,22.00
2022-11-17T10:15:22.584Z,22.00
2022-11-17T10:17:53.482Z,22.00
2022-11-17T10:20:21.887Z,22.00
2022-11-17T10:22:53.319Z,22.00
2022-11-17T10:25:24.247Z,22.00
2022-11-17T10:27:54.303Z,22.00
2022-11-17T10:30:25.005Z,22.00
2022-11-17T10:32:56.865Z,22.10
2022-11-17T10:35:26.816Z,22.10
2022-11-17T10:37:57.718Z,22.10
2022-11-17T10:40:28.010Z,22.10
2022-11-17T10:43:00.753Z,22.10
2022-11-17T10:45:29.169Z,22.10
2022-11-17T10:48:11.740Z,22.10
2022-11-17T10:50:53.277Z,22.10
2022-11-17T10:53:27.870Z,22.10
2022-11-17T10:56:01.289Z,22.10
2022-11-17T10:58:31.050Z,22.10
2022-11-17T11:01:00.910Z,22.10
2022-11-17T11:03:31.871Z,22.10
2022-11-17T11:06:03.717Z,22.20
2022-11-17T11:08:47.149Z,22.20
2022-11-17T11:11:31.982Z,22.30
2022-11-17T11:14:10.406Z,22.40
2022-11-17T11:16:41.406Z,22.50
2022-11-17T11:19:17.242Z,22.60
2022-11-17T11:22:09.380Z,22.80
2022-11-17T11:24:46.318Z,22.80
2022-11-17T11:27:44.923Z,22.90
2022-11-17T11:30:15.672Z,22.90
2022-11-17T11:32:55.647Z,22.90
2022-11-17T11:35:43.950Z,23.00
2022-11-17T11:38:33.357Z,23.10
2022-11-17T11:41:20.303Z,23.30
2022-11-17T11:44:00.804Z,23.50
2022-11-17T11:46:43.053Z,23.70
2022-11-17T11:49:17.649Z,23.90
2022-11-17T11:51:50.401Z,23.50
2022-11-17T11:54:32.021Z,21.70
2022-11-17T11:57:01.623Z,19.90
2022-11-17T11:59:39.818Z,18.90
2022-11-17T12:02:23.782Z,18.40
2022-11-17T12:05:00.954Z,17.80
2022-11-17T12:07:39.812Z,17.90
2022-11-17T12:10:16.474Z,18.60
2022-11-17T12:12:47.398Z,19.40
2022-11-17T12:15:36.212Z,20.20
2022-11-17T12:18:11.473Z,20.90
2022-11-17T12:21:04.876Z,21.40
2022-11-17T12:23:47.851Z,21.80
2022-11-17T12:26:24.132Z,22.10
2022-11-17T12:29:25.993Z,22.50
2022-11-17T12:31:54.572Z,22.70
2022-11-17T12:34:26.301Z,23.00
2022-11-17T12:37:27.981Z,23.20
2022-11-17T12:40:00.352Z,23.40
2022-11-17T12:42:28.798Z,23.60
2022-11-17T12:45:00.164Z,23.70
2022-11-17T12:47:30.377Z,23.80
2022-11-17T12:50:30.299Z,24.00
2022-11-17T12:53:27.114Z,24.10
2022-11-17T12:56:24.658Z,24.10
2022-11-17T12:59:06.129Z,24.20
2022-11-17T13:01:43.250Z,24.20
2022-11-17T13:04:15.551Z,24.20
2022-11-17T13:06:59.647Z,24.20
2022-11-17T13:09:28.856Z,24.20
2022-11-17T13:12:04.197Z,24.20
2022-11-17T13:14:32.840Z,24.20
2022-11-17T13:17:01.718Z,24.30
2022-11-17T13:19:36.125Z,24.30
2022-11-17T13:22:06.788Z,24.30
2022-11-17T13:24:36.748Z,24.20
2022-11-17T13:27:16.656Z,24.20
2022-11-17T13:29:45.050Z,24.20
2022-11-17T13:32:15.671Z,24.20
2022-11-17T13:34:49.040Z,24.20
2022-11-17T13:37:19.192Z,24.20
2022-11-17T13:39:58.011Z,24.20
2022-11-17T13:42:30.887Z,24.20
2022-11-17T13:45:02.829Z,24.20
2022-11-17T13:47:46.777Z,24.20
2022-11-17T13:50:35.333Z,24.20
2022-11-17T13:53:07.073Z,24.20
2022-11-17T13:55:36.460Z,24.10
2022-11-17T13:58:08.779Z,24.10
2022-11-17T14:00:37.265Z,24.10
2022-11-17T14:03:07.030Z,24.10
2022-11-17T14:05:35.458Z,24.00
2022-11-17T14:08:14.198Z,24.00
2022-11-17T14:10:42.698Z,24.00
2022-11-17T14:13:24.647Z,24.00
2022-11-17T14:15:56.526Z,24.00
2022-11-17T14:18:34.279Z,24.00
2022-11-17T14:21:14.819Z,23.90
2022-11-17T14:23:44.463Z,23.90
2022-11-17T14:26:19.940Z,23.90
2022-11-17T14:28:51.229Z,23.90
2022-11-17T14:31:19.943Z,23.90
2022-11-17T14:33:48.055Z,23.80
2022-11-17T14:36:17.800Z,23.80
2022-11-17T14:38:47.023Z,23.80
2022-11-17T14:41:17.378Z,23.70
2022-11-17T14:43:45.928Z,23.70
2022-11-17T14:46:22.438Z,23.60
2022-11-17T14:48:50.822Z,23.60
2022-11-17T14:51:21.595Z,23.50
2022-11-17T14:53:49.798Z,23.50
2022-11-17T14:56:20.178Z,23.50
2022-11-17T14:58:49.458Z,23.50
2022-11-17T15:01:20.554Z,23.40
2022-11-17T15:03:48.789Z,23.40
2022-11-17T15:06:20.097Z,23.40
2022-11-17T15:08:48.973Z,23.40
2022-11-17T15:11:18.603Z,23.40
2022-11-17T15:13:46.694Z,23.40
2022-11-17T15:16:14.850Z,23.30
2022-11-17T15:18:47.664Z,23.30
2022-11-17T15:21:17.147Z,23.30
2022-11-17T15:23:45.644Z,23.30
2022-11-17T15:26:15.660Z,23.30
2022-11-17T15:28:44.616Z,23.20
2022-11-17T15:31:14.598Z,23.20
2022-11-17T15:33:43.644Z,23.20
2022-11-17T15:36:14.398Z,23.20
2022-11-17T15:38:43.276Z,23.20
2022-11-17T15:41:13.397Z,23.20
2022-11-17T15:43:43.001Z,23.10
2022-11-17T15:46:13.120Z,23.10
2022-11-17T15:48:43.542Z,23.10
2022-11-17T15:51:14.863Z,23.10
2022-11-17T15:53:44.308Z,23.10
2022-11-17T15:56:13.832Z,23.10
2022-11-17T15:58:43.312Z,23.10
2022-11-17T16:01:13.512Z,23.10
2022-11-17T16:03:43.129Z,23.10
2022-11-17T16:06:13.461Z,23.00
2022-11-17T16:08:42.069Z,23.00
2022-11-17T16:11:11.199Z,23.00
2022-11-17T16:13:39.339Z,23.00
2022-11-17T16:16:08.927Z,23.00
2022-11-17T16:18:38.535Z,22.90
2022-11-17T16:21:08.510Z,22.90
2022-11-17T16:23:42.608Z,22.90
2022-11-17T16:26:12.065Z,22.90
2022-11-17T16:28:40.363Z,22.80
2022-11-17T16:31:16.308Z,22.80
2022-11-17T16:33:49.223Z,22.80
2022-11-17T16:36:17.902Z,22.80
2022-11-17T16:39:00.251Z,22.80
2022-11-17T16:41:32.136Z,22.80
2022-11-17T16:44:00.651Z,22.70
2022-11-17T16:46:30.271Z,22.70
2022-11-17T16:49:01.854Z,22.70
2022-11-17T16:51:30.164Z,22.70
2022-11-17T16:54:02.382Z,22.70
2022-11-17T16:56:30.528Z,22.60
2022-11-17T16:58:58.779Z,22.60
2022-11-17T17:01:28.574Z,22.60
2022-11-17T17:03:57.788Z,22.60
2022-11-17T17:06:26.429Z,22.60
2022-11-17T17:08:55.380Z,22.60
2022-11-17T17:11:25.336Z,22.60
2022-11-17T17:13:53.452Z,22.60
2022-11-17T17:16:21.770Z,22.60
2022-11-17T17:18:54.671Z,22.50
2022-11-17T17:21:23.272Z,22.50
2022-11-17T17:23:51.567Z,22.50
2022-11-17T17:26:22.292Z,22.50
2022-11-17T17:28:53.024Z,22.50
2022-11-17T17:31:22.670Z,22.50
2022-11-17T17:33:51.999Z,22.50
2022-11-17T17:36:21.735Z,22.50
2022-11-17T17:38:54.925Z,22.50
2022-11-17T17:41:26.060Z,22.50
2022-11-17T17:44:00.218Z,22.50
2022-11-17T17:46:29.813Z,22.40
2022-11-17T17:48:58.358Z,22.40
2022-11-17T17:51:28.053Z,22.40
2022-11-17T17:53:58.198Z,22.40
2022-11-17T17:56:26.913Z,22.40
2022-11-17T17:58:55.864Z,22.40
2022-11-17T18:01:26.696Z,22.40
2022-11-17T18:04:01.473Z,22.40
2022-11-17T18:06:29.873Z,22.30
2022-11-17T18:08:59.145Z,22.30
2022-11-17T18:11:27.554Z,22.30
2022-11-17T18:13:55.945Z,22.30
2022-11-17T18:16:27.236Z,22.30
2022-11-17T18:18:58.116Z,22.30
2022-11-17T18:21:28.505Z,22.30
2022-11-17T18:23:57.893Z,22.30
2022-11-17T18:26:27.602Z,22.30
2022-11-17T18:28:57.693Z,22.30
2022-11-17T18:31:29.831Z,22.30
2022-11-17T18:33:59.759Z,22.30
2022-11-17T18:36:29.164Z,22.30
2022-11-17T18:38:58.603Z,22.30
2022-11-17T18:41:30.614Z,22.20
2022-11-17T18:43:59.033Z,22.20
2022-11-17T18:46:30.113Z,22.20
2022-11-17T18:48:58.862Z,22.20
2022-11-17T18:51:28.741Z,22.20
2022-11-17T18:53:58.671Z,22.20
2022-11-17T18:56:28.186Z,22.20
2022-11-17T18:58:56.603Z,22.20
2022-11-17T19:01:26.431Z,22.20
2022-11-17T19:03:57.812Z,22.20
2022-11-17T19:06:27.028Z,22.20
2022-11-17T19:08:55.192Z,22.20
2022-11-17T19:11:24.026Z,22.20
2022-11-17T19:13:52.304Z,22.20
2022-11-17T19:16:22.439Z,22.20
2022-11-17T19:18:52.096Z,22.20
2022-11-17T19:21:23.565Z,22.20
2022-11-17T19:23:52.467Z,22.20
2022-11-17T19:26:22.462Z,22.20
2022-11-17T19:28:51.025Z,22.20
2022-11-17T19:31:20.529Z,22.10
2022-11-17T19:33:49.975Z,22.10
2022-11-17T19:36:19.612Z,22.10
2022-11-17T19:38:51.515Z,22.10
2022-11-17T19:41:21.691Z,22.10
2022-11-17T19:43:53.056Z,22.10
2022-11-17T19:46:21.452Z,22.10
2022-11-17T19:48:49.627Z,22.10
2022-11-17T19:51:20.796Z,22.10
2022-11-17T19:53:51.690Z,22.10
2022-11-17T19:56:20.546Z,22.10
2022-11-17T19:58:51.078Z,22.10
2022-11-17T20:01:22.249Z,22.10
2022-11-17T20:03:50.769Z,22.10
2022-11-17T20:06:20.436Z,22.10
2022-11-17T20:08:50.442Z,22.10
2022-11-17T20:11:20.116Z,22.10
2022-11-17T20:13:48.944Z,22.10
2022-11-17T20:16:18.960Z,22.10
2022-11-17T20:18:51.376Z,22.00
2022-11-17T20:21:20.247Z,22.00
2022-11-17T20:23:50.237Z,22.00
2022-11-17T20:26:20.612Z,22.00
2022-11-17T20:28:49.484Z,22.00
2022-11-17T20:31:19.515Z,22.00
2022-11-17T20:33:49.187Z,22.00
2022-11-17T20:36:19.039Z,22.00
2022-11-17T20:38:52.550Z,22.00
2022-11-17T20:41:21.386Z,22.00
2022-11-17T20:43:50.333Z,22.00
2022-11-17T20:46:19.417Z,22.00
2022-11-17T20:48:47.748Z,22.00
2022-11-17T20:51:19.843Z,22.00
2022-11-17T20:53:48.047Z,22.00
2022-11-17T20:56:18.778Z,21.90
2022-11-17T20:58:47.447Z,21.90
2022-11-17T21:01:17.300Z,21.90
2022-11-17T21:03:46.591Z,21.90
2022-11-17T21:06:15.518Z,21.90
2022-11-17T21:08:45.095Z,21.90
2022-11-17T21:11:35.733Z,21.90
2022-11-17T21:14:05.791Z,21.90
2022-11-17T21:16:34.631Z,21.90
2022-11-17T21:19:02.694Z,21.90
2022-11-17T21:21:31.038Z,21.90
2022-11-17T21:23:59.649Z,21.80
2022-11-17T21:26:27.930Z,21.80
2022-11-17T21:28:59.345Z,21.80
2022-11-17T21:31:32.783Z,21.80
2022-11-17T21:34:02.663Z,21.80
2022-11-17T21:36:32.250Z,21.80
2022-11-17T21:39:01.276Z,21.80
2022-11-17T21:41:30.567Z,21.80
2022-11-17T21:44:02.047Z,21.80
2022-11-17T21:46:33.227Z,21.80
2022-11-17T21:49:02.305Z,21.80
2022-11-17T21:51:33.386Z,21.80
2022-11-17T21:54:04.411Z,21.80
2022-11-17T21:56:32.734Z,21.80
2022-11-17T21:59:02.457Z,21.80
2022-11-17T22:01:33.500Z,21.80
2022-11-17T22:04:01.776Z,21.80
2022-11-17T22:06:30.351Z,21.80
2022-11-17T22:09:00.160Z,21.80
2022-11-17T22:11:39.134Z,21.80
2022-11-17T22:14:09.787Z,21.80
2022-11-17T22:16:40.825Z,21.80
2022-11-17T22:19:10.079Z,21.80
2022-11-17T22:21:39.519Z,21.80
2022-11-17T22:24:10.030Z,21.80
2022-11-17T22:26:38.766Z,21.80
2022-11-17T22:29:08.660Z,21.80
2022-11-17T22:31:36.824Z,21.80
2022-11-17T22:34:06.404Z,21.80
2022-11-17T22:36:34.539Z,21.80
2022-11-17T22:39:02.839Z,21.80
2022-11-17T22:41:31.310Z,21.80
2022-11-17T22:43:59.612Z,21.70
2022-11-17T22:46:29.416Z,21.70
2022-11-17T22:48:57.572Z,21.70
2022-11-17T22:51:44.733Z,21.70
2022-11-17T22:54:13.140Z,21.70
2022-11-17T22:56:41.247Z,21.70
2022-11-17T22:59:10.017Z,21.70
2022-11-17T23:01:38.320Z,21.70
2022-11-17T23:04:07.673Z,21.70
2022-11-17T23:06:37.183Z,21.70
2022-11-17T23:09:05.510Z,21.70
2022-11-17T23:11:38.156Z,21.70
2022-11-17T23:14:07.605Z,21.70
2022-11-17T23:16:35.716Z,21.70
2022-11-17T23:19:04.105Z,21.70
2022-11-17T23:21:32.249Z,21.70
2022-11-17T23:24:01.776Z,21.70
2022-11-17T23:26:29.949Z,21.70
2022-11-17T23:28:58.079Z,21.70
2022-11-17T23:31:27.832Z,21.80
2022-11-17T23:33:56.571Z,21.80
2022-11-17T23:36:25.401Z,21.80
2022-11-17T23:38:55.842Z,21.80
2022-11-17T23:41:25.480Z,21.70
2022-11-17T23:43:54.735Z,21.70
2022-11-17T23:46:24.489Z,21.70
2022-11-17T23:48:53.166Z,21.70
2022-11-17T23:51:22.956Z,21.80
2022-11-17T23:53:51.619Z,21.80
2022-11-17T23:56:21.386Z,21.80
2022-11-17T23:58:51.049Z,21.80
